sensor_id;sensor_type;location;lat;lon;timestamp;P1;durP1;ratioP1;P2;durP2;ratioP2
72603;SDS011;60645;56.968;24.196;2022-08-21T00:00:23;12.20;;;5.88;;
72603;SDS011;60645;56.968;24.196;2022-08-21T00:02:57;18.42;;;4.80;;
72603;SDS011;60645;56.968;24.196;2022-08-21T00:05:29;12.77;;;4.80;;
72603;SDS011;60645;56.968;24.196;2022-08-21T00:07:57;12.40;;;5.82;;
72603;SDS011;60645;56.968;24.196;2022-08-21T00:10:24;11.85;;;4.57;;
72603;SDS011;60645;56.968;24.196;2022-08-21T00:12:52;10.98;;;3.97;;
72603;SDS011;60645;56.968;24.196;2022-08-21T00:15:23;18.60;;;4.72;;
72603;SDS011;60645;56.968;24.196;2022-08-21T00:17:53;12.57;;;4.57;;
72603;SDS011;60645;56.968;24.196;2022-08-21T00:20:21;16.35;;;5.88;;
72603;SDS011;60645;56.968;24.196;2022-08-21T00:22:49;13.68;;;4.95;;
72603;SDS011;60645;56.968;24.196;2022-08-21T00:25:17;11.88;;;4.88;;
72603;SDS011;60645;56.968;24.196;2022-08-21T00:27:51;16.65;;;5.05;;
72603;SDS011;60645;56.968;24.196;2022-08-21T00:30:19;19.38;;;4.95;;
72603;SDS011;60645;56.968;24.196;2022-08-21T00:32:49;15.95;;;4.95;;
72603;SDS011;60645;56.968;24.196;2022-08-21T00:35:18;10.52;;;5.60;;
72603;SDS011;60645;56.968;24.196;2022-08-21T00:37:47;12.90;;;4.80;;
72603;SDS011;60645;56.968;24.196;2022-08-21T00:40:18;13.02;;;5.88;;
72603;SDS011;60645;56.968;24.196;2022-08-21T00:42:48;11.60;;;4.82;;
72603;SDS011;60645;56.968;24.196;2022-08-21T00:45:19;10.70;;;4.82;;
72603;SDS011;60645;56.968;24.196;2022-08-21T00:47:48;14.50;;;4.95;;
72603;SDS011;60645;56.968;24.196;2022-08-21T00:50:16;15.10;;;4.55;;
72603;SDS011;60645;56.968;24.196;2022-08-21T00:52:47;12.13;;;4.30;;
72603;SDS011;60645;56.968;24.196;2022-08-21T00:55:19;17.10;;;4.50;;
72603;SDS011;60645;56.968;24.196;2022-08-21T01:00:18;14.55;;;4.40;;
72603;SDS011;60645;56.968;24.196;2022-08-21T01:02:50;16.50;;;4.35;;
72603;SDS011;60645;56.968;24.196;2022-08-21T01:05:17;13.80;;;4.70;;
72603;SDS011;60645;56.968;24.196;2022-08-21T01:07:44;12.55;;;4.80;;
72603;SDS011;60645;56.968;24.196;2022-08-21T01:10:11;15.18;;;4.97;;
72603;SDS011;60645;56.968;24.196;2022-08-21T01:12:50;11.90;;;5.03;;
72603;SDS011;60645;56.968;24.196;2022-08-21T01:15:19;10.48;;;4.55;;
72603;SDS011;60645;56.968;24.196;2022-08-21T01:17:49;12.57;;;4.40;;
72603;SDS011;60645;56.968;24.196;2022-08-21T01:20:16;12.07;;;4.25;;
72603;SDS011;60645;56.968;24.196;2022-08-21T01:22:43;16.08;;;4.47;;
72603;SDS011;60645;56.968;24.196;2022-08-21T01:25:12;17.50;;;5.03;;
72603;SDS011;60645;56.968;24.196;2022-08-21T01:27:41;11.88;;;4.80;;
72603;SDS011;60645;56.968;24.196;2022-08-21T01:30:11;14.52;;;4.78;;
72603;SDS011;60645;56.968;24.196;2022-08-21T01:32:39;17.15;;;4.85;;
72603;SDS011;60645;56.968;24.196;2022-08-21T01:35:07;11.10;;;5.35;;
72603;SDS011;60645;56.968;24.196;2022-08-21T01:37:34;16.33;;;5.07;;
72603;SDS011;60645;56.968;24.196;2022-08-21T01:40:02;13.18;;;4.82;;
72603;SDS011;60645;56.968;24.196;2022-08-21T01:42:31;13.57;;;4.60;;
72603;SDS011;60645;56.968;24.196;2022-08-21T01:44:58;14.25;;;4.97;;
72603;SDS011;60645;56.968;24.196;2022-08-21T01:47:25;13.63;;;4.97;;
72603;SDS011;60645;56.968;24.196;2022-08-21T01:49:52;14.13;;;5.15;;
72603;SDS011;60645;56.968;24.196;2022-08-21T01:52:19;14.93;;;4.85;;
72603;SDS011;60645;56.968;24.196;2022-08-21T01:54:46;11.15;;;4.90;;
72603;SDS011;60645;56.968;24.196;2022-08-21T01:57:21;12.52;;;4.47;;
72603;SDS011;60645;56.968;24.196;2022-08-21T01:59:51;17.83;;;5.25;;
72603;SDS011;60645;56.968;24.196;2022-08-21T02:02:18;12.85;;;5.40;;
72603;SDS011;60645;56.968;24.196;2022-08-21T02:04:45;11.15;;;4.75;;
72603;SDS011;60645;56.968;24.196;2022-08-21T02:07:12;13.02;;;5.35;;
72603;SDS011;60645;56.968;24.196;2022-08-21T02:09:39;12.95;;;4.88;;
72603;SDS011;60645;56.968;24.196;2022-08-21T02:12:09;18.75;;;4.90;;
72603;SDS011;60645;56.968;24.196;2022-08-21T02:14:37;11.95;;;4.70;;
72603;SDS011;60645;56.968;24.196;2022-08-21T02:17:04;12.13;;;4.63;;
72603;SDS011;60645;56.968;24.196;2022-08-21T02:19:34;11.30;;;4.65;;
72603;SDS011;60645;56.968;24.196;2022-08-21T02:22:06;16.35;;;4.88;;
72603;SDS011;60645;56.968;24.196;2022-08-21T02:24:37;14.93;;;4.70;;
72603;SDS011;60645;56.968;24.196;2022-08-21T02:27:20;14.25;;;5.40;;
72603;SDS011;60645;56.968;24.196;2022-08-21T02:29:52;14.07;;;4.65;;
72603;SDS011;60645;56.968;24.196;2022-08-21T02:32:20;11.68;;;4.53;;
72603;SDS011;60645;56.968;24.196;2022-08-21T02:34:47;11.70;;;4.90;;
72603;SDS011;60645;56.968;24.196;2022-08-21T02:37:15;16.30;;;5.00;;
72603;SDS011;60645;56.968;24.196;2022-08-21T02:39:42;13.20;;;4.82;;
72603;SDS011;60645;56.968;24.196;2022-08-21T02:42:09;14.52;;;4.60;;
72603;SDS011;60645;56.968;24.196;2022-08-21T02:44:36;12.23;;;4.38;;
72603;SDS011;60645;56.968;24.196;2022-08-21T02:47:03;15.55;;;4.72;;
72603;SDS011;60645;56.968;24.196;2022-08-21T02:49:30;14.60;;;4.53;;
72603;SDS011;60645;56.968;24.196;2022-08-21T02:51:56;10.18;;;3.97;;
72603;SDS011;60645;56.968;24.196;2022-08-21T02:54:23;14.07;;;4.80;;
72603;SDS011;60645;56.968;24.196;2022-08-21T02:56:50;9.77;;;4.32;;
72603;SDS011;60645;56.968;24.196;2022-08-21T02:59:17;15.68;;;6.13;;
72603;SDS011;60645;56.968;24.196;2022-08-21T03:01:45;9.75;;;3.95;;
72603;SDS011;60645;56.968;24.196;2022-08-21T03:04:12;14.15;;;4.72;;
72603;SDS011;60645;56.968;24.196;2022-08-21T03:06:39;11.90;;;5.63;;
72603;SDS011;60645;56.968;24.196;2022-08-21T03:09:05;13.85;;;3.92;;
72603;SDS011;60645;56.968;24.196;2022-08-21T03:11:32;17.50;;;5.20;;
72603;SDS011;60645;56.968;24.196;2022-08-21T03:13:59;16.85;;;5.53;;
72603;SDS011;60645;56.968;24.196;2022-08-21T03:16:26;12.13;;;4.75;;
72603;SDS011;60645;56.968;24.196;2022-08-21T03:18:59;10.13;;;4.65;;
72603;SDS011;60645;56.968;24.196;2022-08-21T03:21:26;12.57;;;4.65;;
72603;SDS011;60645;56.968;24.196;2022-08-21T03:23:54;15.73;;;4.88;;
72603;SDS011;60645;56.968;24.196;2022-08-21T03:26:21;13.60;;;5.15;;
72603;SDS011;60645;56.968;24.196;2022-08-21T03:28:48;16.77;;;5.72;;
72603;SDS011;60645;56.968;24.196;2022-08-21T03:31:16;10.82;;;5.18;;
72603;SDS011;60645;56.968;24.196;2022-08-21T03:33:44;18.73;;;5.80;;
72603;SDS011;60645;56.968;24.196;2022-08-21T03:36:11;11.82;;;4.97;;
72603;SDS011;60645;56.968;24.196;2022-08-21T03:38:38;16.60;;;4.85;;
72603;SDS011;60645;56.968;24.196;2022-08-21T03:41:06;14.43;;;5.05;;
72603;SDS011;60645;56.968;24.196;2022-08-21T03:43:34;10.57;;;5.03;;
72603;SDS011;60645;56.968;24.196;2022-08-21T03:46:02;11.13;;;5.25;;
72603;SDS011;60645;56.968;24.196;2022-08-21T03:48:32;15.35;;;4.95;;
72603;SDS011;60645;56.968;24.196;2022-08-21T03:51:00;15.10;;;4.85;;
72603;SDS011;60645;56.968;24.196;2022-08-21T03:53:28;13.15;;;4.78;;
72603;SDS011;60645;56.968;24.196;2022-08-21T03:55:56;15.82;;;4.70;;
72603;SDS011;60645;56.968;24.196;2022-08-21T03:58:25;16.30;;;7.00;;
72603;SDS011;60645;56.968;24.196;2022-08-21T04:00:54;13.23;;;4.43;;
72603;SDS011;60645;56.968;24.196;2022-08-21T04:03:24;13.13;;;4.28;;
72603;SDS011;60645;56.968;24.196;2022-08-21T04:05:52;12.43;;;5.95;;
72603;SDS011;60645;56.968;24.196;2022-08-21T04:08:19;14.20;;;4.22;;
72603;SDS011;60645;56.968;24.196;2022-08-21T04:10:46;13.65;;;4.97;;
72603;SDS011;60645;56.968;24.196;2022-08-21T04:13:16;10.43;;;6.35;;
72603;SDS011;60645;56.968;24.196;2022-08-21T04:15:43;18.67;;;4.93;;
72603;SDS011;60645;56.968;24.196;2022-08-21T04:18:10;14.80;;;5.45;;
72603;SDS011;60645;56.968;24.196;2022-08-21T04:20:37;18.80;;;6.00;;
72603;SDS011;60645;56.968;24.196;2022-08-21T04:23:05;20.25;;;9.27;;
72603;SDS011;60645;56.968;24.196;2022-08-21T04:25:33;14.02;;;5.07;;
72603;SDS011;60645;56.968;24.196;2022-08-21T04:28:00;15.27;;;7.30;;
72603;SDS011;60645;56.968;24.196;2022-08-21T04:30:28;19.08;;;7.65;;
72603;SDS011;60645;56.968;24.196;2022-08-21T04:32:55;12.95;;;4.35;;
72603;SDS011;60645;56.968;24.196;2022-08-21T04:35:25;11.60;;;4.93;;
72603;SDS011;60645;56.968;24.196;2022-08-21T04:37:53;16.88;;;5.07;;
72603;SDS011;60645;56.968;24.196;2022-08-21T04:40:22;24.05;;;7.32;;
72603;SDS011;60645;56.968;24.196;2022-08-21T04:42:53;10.90;;;4.70;;
72603;SDS011;60645;56.968;24.196;2022-08-21T04:45:27;10.27;;;5.20;;
72603;SDS011;60645;56.968;24.196;2022-08-21T04:48:00;9.50;;;4.10;;
72603;SDS011;60645;56.968;24.196;2022-08-21T04:50:38;13.18;;;5.30;;
72603;SDS011;60645;56.968;24.196;2022-08-21T04:53:12;18.45;;;5.00;;
72603;SDS011;60645;56.968;24.196;2022-08-21T04:55:43;16.42;;;4.45;;
72603;SDS011;60645;56.968;24.196;2022-08-21T04:58:13;15.40;;;4.45;;
72603;SDS011;60645;56.968;24.196;2022-08-21T05:00:43;9.43;;;3.88;;
72603;SDS011;60645;56.968;24.196;2022-08-21T05:03:12;11.68;;;4.30;;
72603;SDS011;60645;56.968;24.196;2022-08-21T05:05:41;10.93;;;4.20;;
72603;SDS011;60645;56.968;24.196;2022-08-21T05:08:09;14.02;;;4.00;;
72603;SDS011;60645;56.968;24.196;2022-08-21T05:10:40;15.45;;;4.93;;
72603;SDS011;60645;56.968;24.196;2022-08-21T05:13:08;14.60;;;4.20;;
72603;SDS011;60645;56.968;24.196;2022-08-21T05:15:36;15.68;;;4.35;;
72603;SDS011;60645;56.968;24.196;2022-08-21T05:18:03;9.70;;;4.85;;
72603;SDS011;60645;56.968;24.196;2022-08-21T05:20:30;12.30;;;4.40;;
72603;SDS011;60645;56.968;24.196;2022-08-21T05:23:00;10.48;;;3.58;;
72603;SDS011;60645;56.968;24.196;2022-08-21T05:25:33;9.32;;;4.30;;
72603;SDS011;60645;56.968;24.196;2022-08-21T05:28:01;11.52;;;4.20;;
72603;SDS011;60645;56.968;24.196;2022-08-21T05:30:28;14.20;;;4.43;;
72603;SDS011;60645;56.968;24.196;2022-08-21T05:32:58;13.80;;;4.18;;
72603;SDS011;60645;56.968;24.196;2022-08-21T05:35:27;16.90;;;5.78;;
72603;SDS011;60645;56.968;24.196;2022-08-21T05:37:55;11.88;;;4.03;;
72603;SDS011;60645;56.968;24.196;2022-08-21T05:40:23;10.85;;;3.75;;
72603;SDS011;60645;56.968;24.196;2022-08-21T05:42:50;11.82;;;4.35;;
72603;SDS011;60645;56.968;24.196;2022-08-21T05:45:23;11.52;;;4.00;;
72603;SDS011;60645;56.968;24.196;2022-08-21T05:48:20;14.88;;;4.32;;
72603;SDS011;60645;56.968;24.196;2022-08-21T05:53:16;10.80;;;3.72;;
72603;SDS011;60645;56.968;24.196;2022-08-21T05:55:44;16.58;;;4.32;;
72603;SDS011;60645;56.968;24.196;2022-08-21T05:58:17;14.45;;;4.22;;
72603;SDS011;60645;56.968;24.196;2022-08-21T06:00:46;11.63;;;4.47;;
72603;SDS011;60645;56.968;24.196;2022-08-21T06:03:19;14.65;;;3.95;;
72603;SDS011;60645;56.968;24.196;2022-08-21T06:08:16;12.48;;;4.35;;
72603;SDS011;60645;56.968;24.196;2022-08-21T06:10:44;11.98;;;3.90;;
72603;SDS011;60645;56.968;24.196;2022-08-21T06:13:13;11.57;;;4.28;;
72603;SDS011;60645;56.968;24.196;2022-08-21T06:15:40;13.10;;;4.38;;
72603;SDS011;60645;56.968;24.196;2022-08-21T06:18:08;9.43;;;3.70;;
72603;SDS011;60645;56.968;24.196;2022-08-21T06:20:35;9.90;;;4.10;;
72603;SDS011;60645;56.968;24.196;2022-08-21T06:23:02;10.00;;;3.72;;
72603;SDS011;60645;56.968;24.196;2022-08-21T06:25:29;13.07;;;3.88;;
72603;SDS011;60645;56.968;24.196;2022-08-21T06:28:04;11.48;;;3.97;;
72603;SDS011;60645;56.968;24.196;2022-08-21T06:30:34;12.25;;;3.58;;
72603;SDS011;60645;56.968;24.196;2022-08-21T06:33:02;12.70;;;4.10;;
72603;SDS011;60645;56.968;24.196;2022-08-21T06:35:29;12.38;;;5.50;;
72603;SDS011;60645;56.968;24.196;2022-08-21T06:37:56;9.05;;;3.97;;
72603;SDS011;60645;56.968;24.196;2022-08-21T06:40:24;13.40;;;4.38;;
72603;SDS011;60645;56.968;24.196;2022-08-21T06:42:55;12.35;;;4.30;;
72603;SDS011;60645;56.968;24.196;2022-08-21T06:45:26;10.10;;;4.05;;
72603;SDS011;60645;56.968;24.196;2022-08-21T06:47:57;14.90;;;5.68;;
72603;SDS011;60645;56.968;24.196;2022-08-21T06:50:24;13.05;;;5.68;;
72603;SDS011;60645;56.968;24.196;2022-08-21T06:52:58;14.10;;;5.50;;
72603;SDS011;60645;56.968;24.196;2022-08-21T06:55:34;14.98;;;5.10;;
72603;SDS011;60645;56.968;24.196;2022-08-21T06:58:01;10.38;;;4.35;;
72603;SDS011;60645;56.968;24.196;2022-08-21T07:00:29;14.95;;;4.15;;
72603;SDS011;60645;56.968;24.196;2022-08-21T07:02:56;15.68;;;4.45;;
72603;SDS011;60645;56.968;24.196;2022-08-21T07:05:24;16.75;;;4.25;;
72603;SDS011;60645;56.968;24.196;2022-08-21T07:07:52;11.27;;;4.05;;
72603;SDS011;60645;56.968;24.196;2022-08-21T07:10:19;10.45;;;3.95;;
72603;SDS011;60645;56.968;24.196;2022-08-21T07:12:48;12.95;;;3.80;;
72603;SDS011;60645;56.968;24.196;2022-08-21T07:15:25;12.25;;;4.32;;
72603;SDS011;60645;56.968;24.196;2022-08-21T07:17:52;12.52;;;4.40;;
72603;SDS011;60645;56.968;24.196;2022-08-21T07:20:19;12.88;;;4.20;;
72603;SDS011;60645;56.968;24.196;2022-08-21T07:22:46;11.25;;;3.65;;
72603;SDS011;60645;56.968;24.196;2022-08-21T07:25:13;13.57;;;3.95;;
72603;SDS011;60645;56.968;24.196;2022-08-21T07:27:40;13.57;;;4.00;;
72603;SDS011;60645;56.968;24.196;2022-08-21T07:30:07;14.75;;;4.10;;
72603;SDS011;60645;56.968;24.196;2022-08-21T07:32:34;13.45;;;4.57;;
72603;SDS011;60645;56.968;24.196;2022-08-21T07:35:01;12.07;;;4.05;;
72603;SDS011;60645;56.968;24.196;2022-08-21T07:37:28;10.27;;;3.67;;
72603;SDS011;60645;56.968;24.196;2022-08-21T07:39:55;10.02;;;3.60;;
72603;SDS011;60645;56.968;24.196;2022-08-21T07:42:22;9.32;;;3.80;;
72603;SDS011;60645;56.968;24.196;2022-08-21T07:44:50;14.93;;;4.10;;
72603;SDS011;60645;56.968;24.196;2022-08-21T07:47:21;10.73;;;3.67;;
72603;SDS011;60645;56.968;24.196;2022-08-21T07:50:07;8.60;;;3.78;;
72603;SDS011;60645;56.968;24.196;2022-08-21T07:52:34;11.93;;;3.75;;
72603;SDS011;60645;56.968;24.196;2022-08-21T07:55:02;11.15;;;4.03;;
72603;SDS011;60645;56.968;24.196;2022-08-21T07:57:32;12.15;;;4.28;;
72603;SDS011;60645;56.968;24.196;2022-08-21T07:59:59;14.00;;;4.10;;
72603;SDS011;60645;56.968;24.196;2022-08-21T08:02:27;9.73;;;3.60;;
72603;SDS011;60645;56.968;24.196;2022-08-21T08:05:06;12.90;;;3.65;;
72603;SDS011;60645;56.968;24.196;2022-08-21T08:07:35;10.05;;;3.65;;
72603;SDS011;60645;56.968;24.196;2022-08-21T08:10:04;7.72;;;3.75;;
72603;SDS011;60645;56.968;24.196;2022-08-21T08:15:00;12.18;;;3.45;;
72603;SDS011;60645;56.968;24.196;2022-08-21T08:17:28;8.95;;;3.35;;
72603;SDS011;60645;56.968;24.196;2022-08-21T08:19:54;10.13;;;3.63;;
72603;SDS011;60645;56.968;24.196;2022-08-21T08:22:22;13.57;;;3.63;;
72603;SDS011;60645;56.968;24.196;2022-08-21T08:24:50;9.10;;;3.08;;
72603;SDS011;60645;56.968;24.196;2022-08-21T08:27:18;11.02;;;3.55;;
72603;SDS011;60645;56.968;24.196;2022-08-21T08:29:46;9.02;;;3.78;;
72603;SDS011;60645;56.968;24.196;2022-08-21T08:32:13;10.25;;;3.67;;
72603;SDS011;60645;56.968;24.196;2022-08-21T08:34:41;11.95;;;3.72;;
72603;SDS011;60645;56.968;24.196;2022-08-21T08:37:08;8.70;;;3.53;;
72603;SDS011;60645;56.968;24.196;2022-08-21T08:39:36;11.35;;;3.42;;
72603;SDS011;60645;56.968;24.196;2022-08-21T08:42:06;9.57;;;3.33;;
72603;SDS011;60645;56.968;24.196;2022-08-21T08:45:00;11.77;;;5.10;;
72603;SDS011;60645;56.968;24.196;2022-08-21T08:47:28;7.43;;;3.10;;
72603;SDS011;60645;56.968;24.196;2022-08-21T08:52:35;12.10;;;3.50;;
72603;SDS011;60645;56.968;24.196;2022-08-21T08:55:08;9.52;;;3.53;;
72603;SDS011;60645;56.968;24.196;2022-08-21T08:57:52;10.38;;;3.25;;
72603;SDS011;60645;56.968;24.196;2022-08-21T09:00:20;9.82;;;3.08;;
72603;SDS011;60645;56.968;24.196;2022-08-21T09:02:49;14.18;;;3.45;;
72603;SDS011;60645;56.968;24.196;2022-08-21T09:05:31;9.68;;;3.53;;
72603;SDS011;60645;56.968;24.196;2022-08-21T09:14:16;6.93;;;3.20;;
72603;SDS011;60645;56.968;24.196;2022-08-21T09:17:15;9.98;;;3.08;;
72603;SDS011;60645;56.968;24.196;2022-08-21T09:23:00;11.35;;;3.78;;
72603;SDS011;60645;56.968;24.196;2022-08-21T09:25:45;10.18;;;3.42;;
72603;SDS011;60645;56.968;24.196;2022-08-21T09:28:16;10.02;;;3.35;;
72603;SDS011;60645;56.968;24.196;2022-08-21T09:30:43;12.43;;;3.38;;
72603;SDS011;60645;56.968;24.196;2022-08-21T09:33:11;10.25;;;4.30;;
72603;SDS011;60645;56.968;24.196;2022-08-21T09:35:52;7.53;;;3.20;;
72603;SDS011;60645;56.968;24.196;2022-08-21T09:38:28;10.27;;;3.20;;
72603;SDS011;60645;56.968;24.196;2022-08-21T09:41:02;10.38;;;3.63;;
72603;SDS011;60645;56.968;24.196;2022-08-21T09:43:32;7.93;;;3.15;;
72603;SDS011;60645;56.968;24.196;2022-08-21T09:48:41;14.27;;;3.60;;
72603;SDS011;60645;56.968;24.196;2022-08-21T09:51:14;11.77;;;3.45;;
72603;SDS011;60645;56.968;24.196;2022-08-21T09:53:45;10.75;;;3.55;;
72603;SDS011;60645;56.968;24.196;2022-08-21T09:56:39;8.75;;;4.30;;
72603;SDS011;60645;56.968;24.196;2022-08-21T09:59:46;15.13;;;4.57;;
72603;SDS011;60645;56.968;24.196;2022-08-21T10:05:03;10.25;;;3.40;;
72603;SDS011;60645;56.968;24.196;2022-08-21T10:07:50;9.00;;;2.72;;
72603;SDS011;60645;56.968;24.196;2022-08-21T10:10:22;9.93;;;3.10;;
72603;SDS011;60645;56.968;24.196;2022-08-21T10:15:34;9.02;;;3.15;;
72603;SDS011;60645;56.968;24.196;2022-08-21T10:29:39;11.55;;;3.58;;
72603;SDS011;60645;56.968;24.196;2022-08-21T10:45:55;9.60;;;2.80;;
72603;SDS011;60645;56.968;24.196;2022-08-21T10:48:34;11.18;;;3.17;;
72603;SDS011;60645;56.968;24.196;2022-08-21T10:56:33;8.45;;;2.85;;
72603;SDS011;60645;56.968;24.196;2022-08-21T11:01:46;6.82;;;2.90;;
72603;SDS011;60645;56.968;24.196;2022-08-21T11:04:20;11.52;;;2.97;;
72603;SDS011;60645;56.968;24.196;2022-08-21T11:07:18;8.50;;;3.17;;
72603;SDS011;60645;56.968;24.196;2022-08-21T11:10:03;8.82;;;3.10;;
72603;SDS011;60645;56.968;24.196;2022-08-21T11:12:47;8.25;;;3.50;;
72603;SDS011;60645;56.968;24.196;2022-08-21T11:18:38;9.07;;;3.17;;
72603;SDS011;60645;56.968;24.196;2022-08-21T11:20:52;9.40;;;3.00;;
72603;SDS011;60645;56.968;24.196;2022-08-21T11:26:38;9.30;;;3.17;;
72603;SDS011;60645;56.968;24.196;2022-08-21T11:29:27;11.90;;;2.97;;
72603;SDS011;60645;56.968;24.196;2022-08-21T11:45:45;7.75;;;2.65;;
72603;SDS011;60645;56.968;24.196;2022-08-21T11:51:04;10.13;;;2.95;;
72603;SDS011;60645;56.968;24.196;2022-08-21T11:53:40;13.10;;;2.85;;
72603;SDS011;60645;56.968;24.196;2022-08-21T11:56:26;10.70;;;3.38;;
72603;SDS011;60645;56.968;24.196;2022-08-21T11:59:11;7.68;;;2.80;;
72603;SDS011;60645;56.968;24.196;2022-08-21T12:01:46;8.00;;;3.80;;
72603;SDS011;60645;56.968;24.196;2022-08-21T12:07:17;7.85;;;2.75;;
72603;SDS011;60645;56.968;24.196;2022-08-21T12:09:58;12.15;;;2.97;;
72603;SDS011;60645;56.968;24.196;2022-08-21T12:23:49;10.95;;;3.70;;
72603;SDS011;60645;56.968;24.196;2022-08-21T12:29:21;9.48;;;3.95;;
72603;SDS011;60645;56.968;24.196;2022-08-21T12:34:25;11.02;;;3.33;;
72603;SDS011;60645;56.968;24.196;2022-08-21T12:39:31;10.55;;;3.28;;
72603;SDS011;60645;56.968;24.196;2022-08-21T12:42:11;14.10;;;3.20;;
72603;SDS011;60645;56.968;24.196;2022-08-21T12:45:00;11.90;;;4.20;;
72603;SDS011;60645;56.968;24.196;2022-08-21T12:50:03;15.25;;;4.18;;
72603;SDS011;60645;56.968;24.196;2022-08-21T12:53:32;8.40;;;4.00;;
72603;SDS011;60645;56.968;24.196;2022-08-21T12:55:46;15.30;;;3.53;;
72603;SDS011;60645;56.968;24.196;2022-08-21T12:58:20;15.05;;;3.53;;
72603;SDS011;60645;56.968;24.196;2022-08-21T13:00:58;11.77;;;3.75;;
72603;SDS011;60645;56.968;24.196;2022-08-21T13:03:31;10.90;;;3.58;;
72603;SDS011;60645;56.968;24.196;2022-08-21T13:06:05;14.52;;;4.05;;
72603;SDS011;60645;56.968;24.196;2022-08-21T13:08:35;10.57;;;3.13;;
72603;SDS011;60645;56.968;24.196;2022-08-21T13:11:06;13.18;;;3.80;;
72603;SDS011;60645;56.968;24.196;2022-08-21T13:13:40;10.50;;;3.22;;
72603;SDS011;60645;56.968;24.196;2022-08-21T13:16:20;10.52;;;3.28;;
72603;SDS011;60645;56.968;24.196;2022-08-21T13:18:53;10.23;;;3.33;;
72603;SDS011;60645;56.968;24.196;2022-08-21T13:21:41;10.13;;;3.65;;
72603;SDS011;60645;56.968;24.196;2022-08-21T13:26:56;11.05;;;3.40;;
72603;SDS011;60645;56.968;24.196;2022-08-21T13:29:27;10.85;;;3.72;;
72603;SDS011;60645;56.968;24.196;2022-08-21T13:31:57;9.85;;;3.28;;
72603;SDS011;60645;56.968;24.196;2022-08-21T13:34:31;14.95;;;3.35;;
72603;SDS011;60645;56.968;24.196;2022-08-21T13:37:02;13.65;;;3.63;;
72603;SDS011;60645;56.968;24.196;2022-08-21T13:39:32;11.10;;;3.50;;
72603;SDS011;60645;56.968;24.196;2022-08-21T13:42:00;9.95;;;3.40;;
72603;SDS011;60645;56.968;24.196;2022-08-21T13:47:02;17.65;;;3.88;;
72603;SDS011;60645;56.968;24.196;2022-08-21T13:49:31;10.48;;;3.58;;
72603;SDS011;60645;56.968;24.196;2022-08-21T13:52:01;14.38;;;5.45;;
72603;SDS011;60645;56.968;24.196;2022-08-21T13:54:34;15.82;;;3.47;;
72603;SDS011;60645;56.968;24.196;2022-08-21T13:57:03;13.40;;;3.50;;
72603;SDS011;60645;56.968;24.196;2022-08-21T13:59:31;7.40;;;3.80;;
72603;SDS011;60645;56.968;24.196;2022-08-21T14:02:02;11.82;;;3.63;;
72603;SDS011;60645;56.968;24.196;2022-08-21T14:04:36;12.27;;;3.45;;
72603;SDS011;60645;56.968;24.196;2022-08-21T14:07:28;13.02;;;4.00;;
72603;SDS011;60645;56.968;24.196;2022-08-21T14:09:56;13.98;;;3.78;;
72603;SDS011;60645;56.968;24.196;2022-08-21T14:12:36;15.80;;;4.05;;
72603;SDS011;60645;56.968;24.196;2022-08-21T14:15:08;14.85;;;3.97;;
72603;SDS011;60645;56.968;24.196;2022-08-21T14:17:39;11.48;;;3.40;;
72603;SDS011;60645;56.968;24.196;2022-08-21T14:20:11;14.02;;;4.07;;
72603;SDS011;60645;56.968;24.196;2022-08-21T14:22:52;14.48;;;4.05;;
72603;SDS011;60645;56.968;24.196;2022-08-21T14:32:58;8.80;;;3.42;;
72603;SDS011;60645;56.968;24.196;2022-08-21T14:35:26;11.48;;;3.40;;
72603;SDS011;60645;56.968;24.196;2022-08-21T14:37:54;11.38;;;3.58;;
72603;SDS011;60645;56.968;24.196;2022-08-21T14:40:22;14.80;;;3.38;;
72603;SDS011;60645;56.968;24.196;2022-08-21T14:42:51;10.75;;;3.90;;
72603;SDS011;60645;56.968;24.196;2022-08-21T14:45:19;11.40;;;3.05;;
72603;SDS011;60645;56.968;24.196;2022-08-21T14:47:55;11.98;;;3.67;;
72603;SDS011;60645;56.968;24.196;2022-08-21T14:50:22;11.98;;;3.35;;
72603;SDS011;60645;56.968;24.196;2022-08-21T14:52:53;15.18;;;3.55;;
72603;SDS011;60645;56.968;24.196;2022-08-21T14:55:20;14.73;;;3.63;;
72603;SDS011;60645;56.968;24.196;2022-08-21T14:57:48;14.10;;;3.67;;
72603;SDS011;60645;56.968;24.196;2022-08-21T15:00:19;14.23;;;3.70;;
72603;SDS011;60645;56.968;24.196;2022-08-21T15:03:01;12.55;;;3.45;;
72603;SDS011;60645;56.968;24.196;2022-08-21T15:05:28;15.52;;;3.47;;
72603;SDS011;60645;56.968;24.196;2022-08-21T15:07:59;11.00;;;3.72;;
72603;SDS011;60645;56.968;24.196;2022-08-21T15:10:26;11.23;;;3.55;;
72603;SDS011;60645;56.968;24.196;2022-08-21T15:12:54;14.02;;;4.07;;
72603;SDS011;60645;56.968;24.196;2022-08-21T15:15:21;15.63;;;4.25;;
72603;SDS011;60645;56.968;24.196;2022-08-21T15:17:48;11.88;;;3.33;;
72603;SDS011;60645;56.968;24.196;2022-08-21T15:20:15;9.23;;;3.45;;
72603;SDS011;60645;56.968;24.196;2022-08-21T15:22:42;9.88;;;3.10;;
72603;SDS011;60645;56.968;24.196;2022-08-21T15:25:13;12.15;;;4.53;;
72603;SDS011;60645;56.968;24.196;2022-08-21T15:27:40;11.98;;;3.75;;
72603;SDS011;60645;56.968;24.196;2022-08-21T15:30:07;13.57;;;3.38;;
72603;SDS011;60645;56.968;24.196;2022-08-21T15:32:35;17.40;;;3.90;;
72603;SDS011;60645;56.968;24.196;2022-08-21T15:35:02;13.85;;;3.75;;
72603;SDS011;60645;56.968;24.196;2022-08-21T15:37:29;14.20;;;3.72;;
72603;SDS011;60645;56.968;24.196;2022-08-21T15:39:56;14.55;;;3.90;;
72603;SDS011;60645;56.968;24.196;2022-08-21T15:42:25;15.25;;;3.47;;
72603;SDS011;60645;56.968;24.196;2022-08-21T15:44:53;16.38;;;3.83;;
72603;SDS011;60645;56.968;24.196;2022-08-21T15:47:22;12.88;;;4.03;;
72603;SDS011;60645;56.968;24.196;2022-08-21T15:49:54;19.45;;;5.53;;
72603;SDS011;60645;56.968;24.196;2022-08-21T15:52:21;11.20;;;4.10;;
72603;SDS011;60645;56.968;24.196;2022-08-21T15:54:49;14.70;;;4.20;;
72603;SDS011;60645;56.968;24.196;2022-08-21T15:57:18;12.07;;;3.75;;
72603;SDS011;60645;56.968;24.196;2022-08-21T15:59:48;11.63;;;3.47;;
72603;SDS011;60645;56.968;24.196;2022-08-21T16:02:25;17.33;;;4.00;;
72603;SDS011;60645;56.968;24.196;2022-08-21T16:04:55;11.40;;;3.70;;
72603;SDS011;60645;56.968;24.196;2022-08-21T16:07:22;14.63;;;3.63;;
72603;SDS011;60645;56.968;24.196;2022-08-21T16:09:50;15.25;;;3.58;;
72603;SDS011;60645;56.968;24.196;2022-08-21T16:12:24;18.50;;;4.05;;
72603;SDS011;60645;56.968;24.196;2022-08-21T16:14:57;13.82;;;3.78;;
72603;SDS011;60645;56.968;24.196;2022-08-21T16:17:29;20.48;;;3.83;;
72603;SDS011;60645;56.968;24.196;2022-08-21T16:19:58;11.23;;;4.20;;
72603;SDS011;60645;56.968;24.196;2022-08-21T16:22:27;14.30;;;3.55;;
72603;SDS011;60645;56.968;24.196;2022-08-21T16:25:10;17.10;;;4.03;;
72603;SDS011;60645;56.968;24.196;2022-08-21T16:27:38;11.27;;;4.32;;
72603;SDS011;60645;56.968;24.196;2022-08-21T16:30:09;16.13;;;4.22;;
72603;SDS011;60645;56.968;24.196;2022-08-21T16:32:36;14.93;;;3.90;;
72603;SDS011;60645;56.968;24.196;2022-08-21T16:35:03;16.75;;;4.15;;
72603;SDS011;60645;56.968;24.196;2022-08-21T16:37:31;10.93;;;3.53;;
72603;SDS011;60645;56.968;24.196;2022-08-21T16:39:58;16.98;;;4.32;;
72603;SDS011;60645;56.968;24.196;2022-08-21T16:42:25;13.80;;;3.75;;
72603;SDS011;60645;56.968;24.196;2022-08-21T16:44:53;15.95;;;4.10;;
72603;SDS011;60645;56.968;24.196;2022-08-21T16:47:20;17.50;;;3.70;;